Time;durP1;ratioP1;P1;durP2;ratioP2;P2;SDS_P1;SDS_P2;PMS_P1;PMS_P2;Temp;Humidity;BMP_temperature;BMP_pressure;BME280_temperature;BME280_humidity;BME280_pressure;Samples;Min_cycle;Max_cycle;Signal;HPM_P1;HPM_P2
2021/04/08 00:00:19;;;;;;;2.50;0.50;;;2.40;86.60;;;;;;2072461;28;20080;-83
2021/04/08 00:01:20;;;;;;;3.25;0.77;;;2.40;86.70;;;;;;2078358;28;20411;-83
2021/04/08 00:02:21;;;;;;;2.05;0.57;;;2.40;86.70;;;;;;2084486;28;20017;-83
2021/04/08 00:03:21;;;;;;;3.92;0.80;;;2.30;86.70;;;;;;2081348;28;20022;-84
2021/04/08 00:04:22;;;;;;;3.03;0.68;;;2.30;86.70;;;;;;2065072;28;20117;-84
2021/04/08 00:05:22;;;;;;;3.30;0.80;;;2.30;86.80;;;;;;2067503;28;20022;-83
2021/04/08 00:06:23;;;;;;;2.45;0.40;;;2.30;86.80;;;;;;2072319;28;20030;-83
2021/04/08 00:07:24;;;;;;;3.00;0.60;;;2.30;86.80;;;;;;2065145;28;20118;-83
2021/04/08 00:08:24;;;;;;;2.80;0.63;;;2.30;86.90;;;;;;2081634;28;20523;-84
2021/04/08 00:09:25;;;;;;;3.70;0.75;;;2.30;86.80;;;;;;2085901;28;20404;-84
2021/04/08 00:10:26;;;;;;;2.88;0.55;;;2.20;86.80;;;;;;2063862;28;20104;-84
2021/04/08 00:11:26;;;;;;;2.45;0.60;;;2.30;86.90;;;;;;2064496;28;20116;-84
2021/04/08 00:12:27;;;;;;;3.67;0.60;;;2.30;86.90;;;;;;2073184;28;20026;-84
2021/04/08 00:13:28;;;;;;;3.35;0.80;;;2.20;86.80;;;;;;2065011;28;20026;-84
2021/04/08 00:14:28;;;;;;;4.95;0.73;;;2.20;86.80;;;;;;2075090;28;20018;-83
2021/04/08 00:15:30;;;;;;;2.45;0.65;;;2.20;86.80;;;;;;2078308;28;20341;-83
2021/04/08 00:16:30;;;;;;;3.25;0.63;;;2.20;86.90;;;;;;2077885;28;20021;-83
2021/04/08 00:17:31;;;;;;;3.63;0.55;;;2.20;86.90;;;;;;2081199;28;20021;-84
2021/04/08 00:18:32;;;;;;;6.35;0.63;;;2.20;86.90;;;;;;2068981;28;20405;-83
2021/04/08 00:19:32;;;;;;;2.38;0.63;;;2.20;86.90;;;;;;2072878;28;20073;-83
2021/04/08 00:20:34;;;;;;;4.95;0.68;;;2.20;87.00;;;;;;2081263;28;20029;-83
2021/04/08 00:21:35;;;;;;;3.40;0.47;;;2.10;86.90;;;;;;2078433;28;20026;-84
2021/04/08 00:22:35;;;;;;;3.47;0.70;;;2.20;87.00;;;;;;2065706;28;20117;-83
2021/04/08 00:23:36;;;;;;;4.45;0.85;;;2.10;87.00;;;;;;2073116;28;20046;-83
2021/04/08 00:24:37;;;;;;;3.25;0.70;;;2.10;87.10;;;;;;2076734;28;20040;-84
2021/04/08 00:25:37;;;;;;;5.32;0.60;;;2.10;87.10;;;;;;2067544;28;20034;-84
2021/04/08 00:26:38;;;;;;;3.28;0.60;;;2.10;87.10;;;;;;2069564;28;20534;-83
2021/04/08 00:27:40;;;;;;;4.72;0.60;;;2.10;87.10;;;;;;2080014;28;20037;-84
2021/04/08 00:28:40;;;;;;;3.95;0.63;;;2.10;87.10;;;;;;2089408;28;20597;-84
2021/04/08 00:29:41;;;;;;;3.92;0.52;;;2.10;87.20;;;;;;2072819;28;20038;-84
2021/04/08 00:30:45;;;;;;;4.05;0.73;;;2.10;87.20;;;;;;2058921;28;20031;-84
2021/04/08 00:31:45;;;;;;;3.10;0.60;;;2.10;87.20;;;;;;2068357;28;20025;-84
2021/04/08 00:32:46;;;;;;;1.83;0.57;;;2.10;87.20;;;;;;2081176;28;20128;-83
2021/04/08 00:33:47;;;;;;;2.42;0.55;;;2.10;87.20;;;;;;2073015;28;20026;-84
2021/04/08 00:34:47;;;;;;;3.30;0.80;;;2.10;87.20;;;;;;2063468;28;20034;-84
2021/04/08 00:35:48;;;;;;;2.75;0.65;;;2.00;87.20;;;;;;2073085;28;20063;-84
2021/04/08 00:36:49;;;;;;;3.28;0.60;;;2.10;87.30;;;;;;2073045;28;20104;-84
2021/04/08 00:37:49;;;;;;;3.03;0.52;;;2.00;87.20;;;;;;2071661;28;20040;-84
2021/04/08 00:38:50;;;;;;;2.88;0.60;;;2.00;87.20;;;;;;2054822;28;20034;-84
2021/04/08 00:39:50;;;;;;;3.28;0.60;;;2.00;87.90;;;;;;2071281;28;20054;-84
2021/04/08 00:40:51;;;;;;;1.55;0.50;;;2.00;87.30;;;;;;2064921;28;20512;-85
2021/04/08 00:41:52;;;;;;;3.50;0.65;;;2.00;87.90;;;;;;2056225;28;20058;-83
2021/04/08 00:42:53;;;;;;;3.85;0.52;;;2.00;87.30;;;;;;2070338;28;20028;-84
2021/04/08 00:43:57;;;;;;;2.28;0.40;;;2.00;87.30;;;;;;2070143;28;20057;-84
2021/04/08 00:44:57;;;;;;;2.15;0.60;;;2.00;87.30;;;;;;2080809;28;20051;-84
2021/04/08 00:45:58;;;;;;;2.38;0.52;;;2.00;87.30;;;;;;2072164;28;20740;-84
2021/04/08 00:46:58;;;;;;;2.63;0.60;;;2.00;87.30;;;;;;2072806;28;20120;-84
2021/04/08 00:47:59;;;;;;;3.75;0.63;;;2.00;87.30;;;;;;2064785;28;20023;-84
2021/04/08 00:49:00;;;;;;;2.40;0.68;;;2.00;87.40;;;;;;2064291;28;20108;-84
2021/04/08 00:50:03;;;;;;;4.60;0.50;;;2.00;87.40;;;;;;2062642;28;20138;-84
2021/04/08 00:51:04;;;;;;;2.42;0.57;;;2.00;87.40;;;;;;2080908;28;20522;-84
2021/04/08 00:52:05;;;;;;;1.73;0.50;;;1.90;87.30;;;;;;2073135;28;20041;-84
2021/04/08 00:53:11;;;;;;;3.08;0.68;;;2.00;87.40;;;;;;2072481;28;20073;-84
2021/04/08 00:54:11;;;;;;;2.53;0.43;;;1.90;87.40;;;;;;2068529;28;20069;-84
2021/04/08 00:55:13;;;;;;;3.15;0.70;;;1.90;87.40;;;;;;2069770;28;20036;-84
2021/04/08 00:56:15;;;;;;;3.17;0.50;;;1.90;87.40;;;;;;2071533;28;20030;-84
2021/04/08 00:57:16;;;;;;;4.28;0.60;;;1.90;87.40;;;;;;2079258;28;20495;-84
2021/04/08 00:58:18;;;;;;;3.53;0.75;;;1.90;87.50;;;;;;2067409;28;20038;-84
2021/04/08 00:59:19;;;;;;;3.85;0.63;;;1.90;87.50;;;;;;2071691;28;20104;-83
2021/04/08 01:00:21;;;;;;;2.17;0.60;;;1.90;87.50;;;;;;2083830;28;20031;-82
2021/04/08 01:01:21;;;;;;;2.90;0.80;;;1.80;87.50;;;;;;2078782;28;20120;-83
2021/04/08 01:02:22;;;;;;;2.50;0.60;;;1.80;87.50;;;;;;2072044;28;20038;-84
2021/04/08 01:03:24;;;;;;;3.67;0.68;;;1.80;87.50;;;;;;2069989;28;20033;-83
2021/04/08 01:04:24;;;;;;;2.65;0.50;;;1.80;87.60;;;;;;2065664;28;20037;-82
2021/04/08 01:05:26;;;;;;;5.10;0.80;;;1.80;87.60;;;;;;2079954;28;20033;-83
2021/04/08 01:06:27;;;;;;;2.13;0.60;;;1.80;87.60;;;;;;2080909;28;20064;-83
2021/04/08 01:07:27;;;;;;;3.47;0.68;;;1.80;87.60;;;;;;2069525;28;20038;-83
2021/04/08 01:08:28;;;;;;;2.83;0.70;;;1.80;87.70;;;;;;2072227;28;20388;-83
2021/04/08 01:09:29;;;;;;;3.08;0.75;;;1.80;87.70;;;;;;2072605;28;20080;-83
2021/04/08 01:10:29;;;;;;;2.05;0.60;;;1.80;87.70;;;;;;2070764;28;20033;-83
2021/04/08 01:11:30;;;;;;;3.25;0.77;;;1.80;87.80;;;;;;2079864;28;20013;-83
2021/04/08 01:12:31;;;;;;;3.65;0.63;;;1.80;87.80;;;;;;2077235;28;20047;-83
2021/04/08 01:13:33;;;;;;;3.65;0.93;;;1.80;87.80;;;;;;2077135;28;20472;-83
2021/04/08 01:14:34;;;;;;;2.13;0.70;;;1.80;87.80;;;;;;2088903;28;20029;-84
2021/04/08 01:15:35;;;;;;;2.85;0.70;;;1.80;87.80;;;;;;2072243;28;20558;-83
2021/04/08 01:17:17;;;;;;;2.20;0.70;;;1.80;87.80;;;;;;2072384;28;20030;-84
2021/04/08 01:18:47;;;;;;;2.63;0.80;;;1.80;87.80;;;;;;2094622;28;20533;-84
2021/04/08 01:20:14;;;;;;;3.15;0.80;;;1.80;87.80;;;;;;2088928;28;20036;-84
2021/04/08 01:21:35;;;;;;;4.20;0.90;;;1.80;87.70;;;;;;2092905;28;20078;-83
2021/04/08 01:23:04;;;;;;;2.50;0.70;;;1.70;87.60;;;;;;2082342;28;20068;-83
2021/04/08 01:24:27;;;;;;;3.30;0.60;;;1.70;87.50;;;;;;2087751;28;20029;-83
2021/04/08 01:25:40;;;;;;;2.90;0.70;;;1.70;87.60;;;;;;2086694;28;20033;-83
2021/04/08 01:26:52;;;;;;;3.38;0.90;;;1.70;87.50;;;;;;2080457;28;20372;-83
2021/04/08 01:28:32;;;;;;;1.95;0.60;;;1.70;87.60;;;;;;2080363;28;20061;-83
2021/04/08 01:29:54;;;;;;;4.10;1.02;;;1.60;87.50;;;;;;2080986;28;20583;-83
2021/04/08 01:30:56;;;;;;;1.85;0.60;;;1.70;87.50;;;;;;2079551;28;20029;-83
2021/04/08 01:32:01;;;;;;;4.28;0.70;;;1.60;87.50;;;;;;2080811;28;20060;-83
2021/04/08 01:33:02;;;;;;;2.55;0.70;;;1.70;87.60;;;;;;2081404;28;20530;-83
2021/04/08 01:34:11;;;;;;;4.45;0.82;;;1.60;87.50;;;;;;2077823;28;20391;-84
2021/04/08 01:35:14;;;;;;;2.92;0.80;;;1.60;87.70;;;;;;2067897;28;20437;-83
2021/04/08 01:36:23;;;;;;;3.17;0.80;;;1.70;87.70;;;;;;2083327;28;20026;-83
2021/04/08 01:37:30;;;;;;;2.72;0.90;;;1.60;87.70;;;;;;2085191;28;20025;-84
2021/04/08 01:38:56;;;;;;;3.03;0.77;;;1.60;87.80;;;;;;2085258;28;20033;-83
2021/04/08 01:39:59;;;;;;;3.55;0.85;;;1.60;87.80;;;;;;2086001;28;20060;-83
2021/04/08 01:41:01;;;;;;;2.72;0.88;;;1.60;87.70;;;;;;2084546;28;20029;-83
2021/04/08 01:42:03;;;;;;;2.78;0.90;;;1.60;87.70;;;;;;2075750;28;20038;-84
2021/04/08 01:43:06;;;;;;;2.15;0.70;;;1.60;87.70;;;;;;2068399;28;20176;-83
2021/04/08 01:44:14;;;;;;;2.63;0.85;;;1.60;87.80;;;;;;2077601;28;20041;-83
2021/04/08 01:45:18;;;;;;;2.13;0.75;;;1.60;87.80;;;;;;2083984;28;20124;-84
2021/04/08 01:46:20;;;;;;;2.00;0.77;;;1.60;87.80;;;;;;2080327;28;20013;-84
2021/04/08 01:47:25;;;;;;;5.20;1.00;;;1.60;87.80;;;;;;2080640;28;20021;-84
2021/04/08 01:48:28;;;;;;;4.03;1.05;;;1.60;87.80;;;;;;2089646;28;20025;-84
2021/04/08 01:49:32;;;;;;;4.20;0.93;;;1.60;87.80;;;;;;2092497;28;20021;-83
2021/04/08 01:50:33;;;;;;;4.80;1.00;;;1.60;87.80;;;;;;2091462;28;20399;-84
2021/04/08 01:51:36;;;;;;;3.47;0.77;;;1.70;87.90;;;;;;2069971;28;20022;-84
2021/04/08 01:52:41;;;;;;;3.38;0.93;;;1.60;87.80;;;;;;2060569;28;20552;-84
2021/04/08 01:53:47;;;;;;;4.47;0.95;;;1.70;87.90;;;;;;2084014;28;20034;-85
2021/04/08 01:54:53;;;;;;;1.83;0.75;;;1.70;87.90;;;;;;2089583;28;20107;-84
2021/04/08 01:55:57;;;;;;;2.45;0.90;;;1.70;87.90;;;;;;2082425;28;20423;-84
2021/04/08 01:57:05;;;;;;;3.88;0.90;;;1.70;87.90;;;;;;2081575;28;20116;-84
2021/04/08 01:58:07;;;;;;;3.00;0.88;;;1.70;87.90;;;;;;2075645;28;20499;-84
2021/04/08 01:59:13;;;;;;;2.90;0.90;;;1.70;87.80;;;;;;2066285;28;20051;-84
2021/04/08 02:00:20;;;;;;;2.75;0.90;;;1.70;87.80;;;;;;2069194;28;20037;-83
2021/04/08 02:01:22;;;;;;;3.20;0.90;;;1.80;87.80;;;;;;2075326;28;20113;-83
2021/04/08 02:02:24;;;;;;;4.40;0.80;;;1.80;87.80;;;;;;2073483;28;20022;-84
2021/04/08 02:03:26;;;;;;;3.15;0.88;;;1.80;87.80;;;;;;2074100;28;20065;-83
2021/04/08 02:04:29;;;;;;;4.45;0.77;;;1.80;87.80;;;;;;2066338;28;20038;-84
2021/04/08 02:05:30;;;;;;;3.30;0.85;;;1.80;87.80;;;;;;2077042;28;20529;-86
2021/04/08 02:06:32;;;;;;;2.08;0.68;;;1.80;87.70;;;;;;2078295;28;20153;-83
2021/04/08 02:07:34;;;;;;;3.10;0.68;;;1.90;87.70;;;;;;2069466;28;20477;-83
2021/04/08 02:08:38;;;;;;;2.17;0.73;;;1.90;87.70;;;;;;2085485;28;20037;-83
2021/04/08 02:09:40;;;;;;;2.97;0.70;;;1.90;87.60;;;;;;2090627;28;20032;-84
2021/04/08 02:10:41;;;;;;;1.73;0.50;;;1.90;87.60;;;;;;2078344;28;20022;-83
2021/04/08 02:11:45;;;;;;;2.60;0.75;;;2.00;87.60;;;;;;2076978;28;20463;-84
2021/04/08 02:12:48;;;;;;;1.70;0.45;;;2.00;87.60;;;;;;2088117;28;20014;-84
2021/04/08 02:13:50;;;;;;;5.25;0.95;;;2.00;87.50;;;;;;2091136;28;20431;-84
2021/04/08 02:14:51;;;;;;;3.72;0.70;;;2.00;87.50;;;;;;2096134;28;20036;-83
2021/04/08 02:15:52;;;;;;;3.58;0.65;;;2.10;87.50;;;;;;2075161;28;20101;-83
2021/04/08 02:16:54;;;;;;;1.80;0.73;;;2.10;87.50;;;;;;2085212;28;20026;-84
2021/04/08 02:17:59;;;;;;;1.98;0.52;;;2.10;87.40;;;;;;2085265;28;20025;-84
2021/04/08 02:19:01;;;;;;;1.65;0.43;;;2.10;87.40;;;;;;2077298;28;20018;-84
2021/04/08 02:20:14;;;;;;;2.63;0.80;;;2.10;87.30;;;;;;2085255;28;20064;-84
2021/04/08 02:21:18;;;;;;;2.60;0.60;;;2.10;87.30;;;;;;2091141;28;20029;-86
2021/04/08 02:22:19;;;;;;;1.83;0.65;;;2.20;87.30;;;;;;2084145;28;20446;-85
2021/04/08 02:23:23;;;;;;;2.70;1.00;;;2.20;87.20;;;;;;2072906;28;20705;-85
2021/04/08 02:24:25;;;;;;;3.70;0.65;;;2.20;87.20;;;;;;2075096;28;20018;-85
2021/04/08 02:25:32;;;;;;;3.00;0.60;;;2.20;87.20;;;;;;2091993;28;20021;-85
2021/04/08 02:26:33;;;;;;;1.55;0.52;;;2.20;87.10;;;;;;2083674;28;20403;-85
2021/04/08 02:27:39;;;;;;;2.22;0.57;;;2.20;87.10;;;;;;2081642;28;20048;-84
2021/04/08 02:28:40;;;;;;;3.05;0.63;;;2.20;87.00;;;;;;2082908;28;20036;-84
2021/04/08 02:29:42;;;;;;;3.67;0.60;;;2.30;87.10;;;;;;2082339;28;20113;-84
2021/04/08 02:30:47;;;;;;;1.88;0.57;;;2.30;87.10;;;;;;2064755;28;20555;-84
2021/04/08 02:31:50;;;;;;;1.80;0.70;;;2.30;87.10;;;;;;2067315;28;20019;-84
2021/04/08 02:32:51;;;;;;;3.10;0.80;;;2.30;87.00;;;;;;2085550;28;20059;-84
2021/04/08 02:33:53;;;;;;;2.80;0.60;;;2.30;87.00;;;;;;2090331;28;20106;-84
2021/04/08 02:34:53;;;;;;;1.73;0.50;;;2.30;87.00;;;;;;2065812;28;20042;-84
2021/04/08 02:35:55;;;;;;;3.33;0.60;;;2.30;87.60;;;;;;2067815;28;20027;-84
2021/04/08 02:36:56;;;;;;;2.13;0.45;;;2.30;87.00;;;;;;2074044;28;20053;-84
2021/04/08 02:37:57;;;;;;;1.80;0.40;;;2.30;87.00;;;;;;2081990;28;20034;-84
2021/04/08 02:38:57;;;;;;;3.00;0.50;;;2.30;87.00;;;;;;2081668;28;20029;-84
2021/04/08 02:39:58;;;;;;;1.83;0.50;;;2.30;87.00;;;;;;2073626;28;20373;-84
2021/04/08 02:41:00;;;;;;;2.63;0.60;;;2.30;87.00;;;;;;2072967;28;20026;-84
2021/04/08 02:42:01;;;;;;;2.53;0.82;;;2.30;87.00;;;;;;2088382;28;20021;-84
2021/04/08 02:43:02;;;;;;;3.90;0.60;;;2.30;87.00;;;;;;2081971;28;20069;-85
2021/04/08 02:44:03;;;;;;;3.15;0.82;;;2.40;87.00;;;;;;2089814;28;20087;-84
2021/04/08 02:45:06;;;;;;;4.18;0.60;;;2.40;87.00;;;;;;2090504;28;20021;-84
2021/04/08 02:46:07;;;;;;;2.72;0.60;;;2.40;87.00;;;;;;2077822;28;20034;-84
2021/04/08 02:47:08;;;;;;;3.08;0.50;;;2.40;87.00;;;;;;2063108;28;20025;-84
2021/04/08 02:48:10;;;;;;;2.33;0.55;;;2.40;87.00;;;;;;2065736;28;20515;-84
2021/04/08 02:49:11;;;;;;;2.65;0.40;;;2.40;86.90;;;;;;2066067;28;20030;-84
2021/04/08 02:50:14;;;;;;;2.38;0.47;;;2.40;86.90;;;;;;2080537;28;20049;-84
2021/04/08 02:51:23;;;;;;;2.15;0.40;;;2.40;86.90;;;;;;2089429;28;20029;-84
2021/04/08 02:52:26;;;;;;;2.00;0.50;;;2.40;86.90;;;;;;2082121;28;20021;-84
2021/04/08 02:53:46;;;;;;;1.55;0.47;;;2.40;86.90;;;;;;2074508;28;20156;-84
2021/04/08 02:54:59;;;;;;;1.55;0.50;;;2.40;86.90;;;;;;2074551;28;20031;-84
2021/04/08 02:56:21;;;;;;;2.60;0.50;;;2.40;86.80;;;;;;2085475;28;20510;-83
2021/04/08 02:57:29;;;;;;;1.25;0.40;;;2.40;86.80;;;;;;2082140;28;20023;-85
2021/04/08 02:58:35;;;;;;;1.75;0.35;;;2.40;86.70;;;;;;2083544;28;20071;-84
2021/04/08 02:59:44;;;;;;;1.17;0.40;;;2.40;86.70;;;;;;2074275;28;20072;-84
2021/04/08 03:00:54;;;;;;;2.97;0.40;;;2.40;86.60;;;;;;2082016;28;20029;-84
2021/04/08 03:02:03;;;;;;;1.53;0.50;;;2.40;86.60;;;;;;2084009;28;20044;-85
2021/04/08 03:03:06;;;;;;;2.42;0.75;;;2.40;86.60;;;;;;2089888;28;20260;-84
2021/04/08 03:04:09;;;;;;;1.58;0.40;;;2.50;86.70;;;;;;2081178;28;20099;-84
2021/04/08 03:05:12;;;;;;;1.65;0.40;;;2.40;86.60;;;;;;2064919;28;20061;-84
2021/04/08 03:06:14;;;;;;;2.45;0.60;;;2.40;86.60;;;;;;2080785;28;20411;-83
2021/04/08 03:07:23;;;;;;;1.73;0.40;;;2.40;86.60;;;;;;2080634;28;20092;-84
2021/04/08 03:08:24;;;;;;;2.03;0.45;;;2.40;86.70;;;;;;2073491;28;20487;-84
2021/04/08 03:09:53;;;;;;;2.83;0.50;;;2.40;86.60;;;;;;2073722;28;20121;-84
2021/04/08 03:10:54;;;;;;;1.83;0.50;;;2.40;86.70;;;;;;2078749;28;20059;-84
2021/04/08 03:11:58;;;;;;;1.90;0.40;;;2.40;86.60;;;;;;2089984;28;20033;-84
2021/04/08 03:13:01;;;;;;;3.03;0.60;;;2.40;86.60;;;;;;2089934;28;20074;-83
2021/04/08 03:14:06;;;;;;;1.35;0.32;;;2.50;86.70;;;;;;2084734;28;20040;-84
2021/04/08 03:15:08;;;;;;;2.45;0.65;;;2.40;86.60;;;;;;2081754;28;20060;-84
2021/04/08 03:16:23;;;;;;;1.92;0.40;;;2.40;86.60;;;;;;2081948;28;20034;-83
2021/04/08 03:17:30;;;;;;;3.03;0.60;;;2.50;86.70;;;;;;2094688;28;20363;-84
2021/04/08 03:18:32;;;;;;;2.45;0.50;;;2.40;86.60;;;;;;2094949;28;20024;-84
2021/04/08 03:19:35;;;;;;;3.53;0.57;;;2.50;86.70;;;;;;2080156;28;20481;-84
2021/04/08 03:20:37;;;;;;;2.92;0.60;;;2.40;86.60;;;;;;2089034;28;20124;-84
2021/04/08 03:21:40;;;;;;;2.47;0.52;;;2.40;86.60;;;;;;2081964;28;20480;-84
2021/04/08 03:22:42;;;;;;;1.75;0.40;;;2.50;86.70;;;;;;2087576;28;20025;-84
2021/04/08 03:23:44;;;;;;;1.35;0.40;;;2.50;86.70;;;;;;2074123;28;20045;-84
2021/04/08 03:24:46;;;;;;;1.55;0.40;;;2.50;86.70;;;;;;2065913;28;20034;-84
2021/04/08 03:25:49;;;;;;;1.17;0.28;;;2.50;86.80;;;;;;2081734;28;20026;-84
2021/04/08 03:26:50;;;;;;;1.25;0.50;;;2.50;86.80;;;;;;2081879;28;20447;-83
2021/04/08 03:27:51;;;;;;;2.17;0.52;;;2.50;86.80;;;;;;2082375;28;20037;-83
2021/04/08 03:28:54;;;;;;;2.78;0.50;;;2.50;86.80;;;;;;2082627;28;20032;-84
2021/04/08 03:29:56;;;;;;;4.10;0.50;;;2.50;86.80;;;;;;2084898;28;20041;-84
2021/04/08 03:31:01;;;;;;;2.50;0.55;;;2.50;86.80;;;;;;2081465;28;20026;-84
2021/04/08 03:32:02;;;;;;;3.25;0.50;;;2.50;86.90;;;;;;2085369;28;20420;-83
2021/04/08 03:33:03;;;;;;;3.47;0.63;;;2.50;86.80;;;;;;2073515;28;20022;-83
2021/04/08 03:34:04;;;;;;;2.70;0.45;;;2.50;86.90;;;;;;2071734;28;20046;-84
2021/04/08 03:35:10;;;;;;;3.00;0.70;;;2.50;86.80;;;;;;2072358;28;20022;-83
2021/04/08 03:36:13;;;;;;;2.03;0.50;;;2.50;86.90;;;;;;2067096;28;20034;-84
2021/04/08 03:37:15;;;;;;;1.63;0.50;;;2.50;86.90;;;;;;2083752;28;20407;-84
2021/04/08 03:38:18;;;;;;;4.03;0.60;;;2.50;86.90;;;;;;2089110;28;20033;-84
2021/04/08 03:39:19;;;;;;;2.25;0.50;;;2.50;86.90;;;;;;2098016;28;20063;-84
2021/04/08 03:40:20;;;;;;;2.72;0.60;;;2.50;86.90;;;;;;2088205;28;20048;-84
2021/04/08 03:41:22;;;;;;;1.83;0.55;;;2.50;86.90;;;;;;2081698;28;20026;-84
2021/04/08 03:42:23;;;;;;;2.33;0.60;;;2.60;87.00;;;;;;2080723;28;20443;-83
2021/04/08 03:43:25;;;;;;;0.95;0.40;;;2.50;86.90;;;;;;2073607;28;20026;-84
2021/04/08 03:44:28;;;;;;;2.80;0.60;;;2.60;87.00;;;;;;2067944;28;20037;-84
2021/04/08 03:45:29;;;;;;;4.43;0.60;;;2.60;87.00;;;;;;2081815;28;20038;-85
2021/04/08 03:46:30;;;;;;;2.28;0.60;;;2.60;87.00;;;;;;2079739;28;20112;-85
2021/04/08 03:47:32;;;;;;;2.35;0.50;;;2.60;87.00;;;;;;2065584;28;20477;-85
2021/04/08 03:48:34;;;;;;;2.25;0.50;;;2.60;86.90;;;;;;2071628;28;20120;-84
2021/04/08 03:49:35;;;;;;;3.05;0.70;;;2.60;86.90;;;;;;2073462;28;20026;-83
2021/04/08 03:50:37;;;;;;;2.58;0.60;;;2.60;86.90;;;;;;2081711;28;20063;-84
2021/04/08 03:51:39;;;;;;;2.42;0.50;;;2.60;86.90;;;;;;2087309;28;20025;-84
2021/04/08 03:52:42;;;;;;;2.63;0.60;;;2.60;86.90;;;;;;2072743;28;20033;-84
2021/04/08 03:53:43;;;;;;;3.35;0.50;;;2.60;86.80;;;;;;2075962;28;20404;-84
2021/04/08 03:54:47;;;;;;;2.60;0.47;;;2.60;86.80;;;;;;2069553;28;20044;-84
2021/04/08 03:55:48;;;;;;;2.10;0.30;;;2.60;86.80;;;;;;2081394;28;20018;-85
2021/04/08 03:56:51;;;;;;;1.45;0.40;;;2.60;86.80;;;;;;2082925;28;20022;-84
2021/04/08 03:57:53;;;;;;;1.75;0.45;;;2.60;86.80;;;;;;2073605;28;20085;-83
2021/04/08 03:58:54;;;;;;;3.28;0.50;;;2.60;86.80;;;;;;2073466;28;20033;-84
2021/04/08 03:59:56;;;;;;;1.98;0.60;;;2.70;86.90;;;;;;2065831;28;20065;-84
2021/04/08 04:00:59;;;;;;;2.20;0.65;;;2.60;86.90;;;;;;2072684;28;20038;-84
2021/04/08 04:02:00;;;;;;;2.47;0.70;;;2.60;86.80;;;;;;2081311;28;20016;-84
2021/04/08 04:03:02;;;;;;;2.78;0.57;;;2.70;86.90;;;;;;2081295;28;20033;-84
2021/04/08 04:04:04;;;;;;;1.35;0.40;;;2.60;86.80;;;;;;2080784;28;20136;-84
2021/04/08 04:05:08;;;;;;;2.38;0.70;;;2.60;86.90;;;;;;2079799;28;20057;-84
2021/04/08 04:06:09;;;;;;;2.92;1.10;;;2.60;86.90;;;;;;2088644;28;20071;-84
2021/04/08 04:07:10;;;;;;;1.63;0.60;;;2.60;86.80;;;;;;2077544;28;20570;-84
2021/04/08 04:08:11;;;;;;;1.65;0.60;;;2.60;86.80;;;;;;2074734;28;20034;-84
2021/04/08 04:09:13;;;;;;;1.98;0.77;;;2.70;86.90;;;;;;2084192;28;20029;-84
2021/04/08 04:10:14;;;;;;;2.03;0.70;;;2.70;87.00;;;;;;2065067;28;20031;-84
2021/04/08 04:11:15;;;;;;;2.47;0.60;;;2.70;87.00;;;;;;2065088;28;20041;-84
2021/04/08 04:12:17;;;;;;;3.03;0.60;;;2.70;86.90;;;;;;2072595;28;20472;-84
2021/04/08 04:13:18;;;;;;;2.40;0.70;;;2.60;86.90;;;;;;2082092;28;20108;-83
2021/04/08 04:14:21;;;;;;;2.53;0.77;;;2.70;87.00;;;;;;2081497;28;20047;-84
2021/04/08 04:15:23;;;;;;;2.47;0.70;;;2.70;87.00;;;;;;2081257;28;20045;-84
2021/04/08 04:16:25;;;;;;;1.67;0.65;;;2.60;86.90;;;;;;2067514;28;20120;-84
2021/04/08 04:17:28;;;;;;;2.63;0.90;;;2.60;86.90;;;;;;2073235;28;20058;-84
2021/04/08 04:18:29;;;;;;;2.72;0.80;;;2.70;87.00;;;;;;2080778;28;20021;-84
2021/04/08 04:19:29;;;;;;;2.58;0.85;;;2.60;86.90;;;;;;2080890;28;20463;-84
2021/04/08 04:20:30;;;;;;;3.55;1.08;;;2.70;87.00;;;;;;2081341;28;20033;-85
2021/04/08 04:21:32;;;;;;;3.15;1.00;;;2.70;87.00;;;;;;2071855;28;20400;-84
2021/04/08 04:22:34;;;;;;;2.72;1.10;;;2.70;87.00;;;;;;2073206;28;20030;-84
2021/04/08 04:23:34;;;;;;;3.38;1.35;;;2.70;87.00;;;;;;2079943;28;20026;-83
2021/04/08 04:24:35;;;;;;;2.55;1.00;;;2.70;87.00;;;;;;2064846;28;20138;-84
2021/04/08 04:25:36;;;;;;;3.83;1.20;;;2.70;87.10;;;;;;2071041;28;20452;-84
2021/04/08 04:26:36;;;;;;;1.92;0.82;;;2.70;87.10;;;;;;2072344;28;20038;-84
2021/04/08 04:27:37;;;;;;;3.60;1.15;;;2.70;87.00;;;;;;2083313;28;20583;-85
2021/04/08 04:28:38;;;;;;;2.53;1.00;;;2.70;87.00;;;;;;2076102;28;20053;-83
2021/04/08 04:29:39;;;;;;;3.28;0.95;;;2.70;87.10;;;;;;2087205;28;20095;-84
2021/04/08 04:30:40;;;;;;;3.50;0.90;;;2.70;87.10;;;;;;2081267;28;20116;-84
2021/04/08 04:31:40;;;;;;;3.33;1.15;;;2.70;87.10;;;;;;2063131;28;20026;-84
2021/04/08 04:32:41;;;;;;;2.13;0.82;;;2.70;87.10;;;;;;2070739;28;20033;-84
2021/04/08 04:33:42;;;;;;;2.35;0.75;;;2.70;87.10;;;;;;2064801;28;20027;-84
2021/04/08 04:34:43;;;;;;;2.17;0.73;;;2.70;87.10;;;;;;2076711;28;20159;-84
2021/04/08 04:35:44;;;;;;;2.13;0.80;;;2.60;87.00;;;;;;2089065;28;20060;-84
2021/04/08 04:36:44;;;;;;;1.60;0.73;;;2.70;87.10;;;;;;2070871;28;20033;-84
2021/04/08 04:37:46;;;;;;;2.38;0.98;;;2.70;87.10;;;;;;2060194;28;20037;-84
2021/04/08 04:38:47;;;;;;;2.55;0.80;;;2.70;87.10;;;;;;2072865;28;20149;-84
2021/04/08 04:39:48;;;;;;;2.65;1.10;;;2.70;87.10;;;;;;2062790;28;20129;-85
2021/04/08 04:40:49;;;;;;;1.98;0.70;;;2.70;87.10;;;;;;2072234;28;20030;-84
2021/04/08 04:41:49;;;;;;;2.25;0.82;;;2.60;87.10;;;;;;2061486;28;20030;-84
2021/04/08 04:42:50;;;;;;;2.88;0.60;;;2.60;87.10;;;;;;2071475;28;20555;-84
2021/04/08 04:43:51;;;;;;;2.97;0.85;;;2.70;87.80;;;;;;2076884;28;20124;-84
2021/04/08 04:44:51;;;;;;;1.98;0.80;;;2.60;87.10;;;;;;2071253;28;20036;-84
2021/04/08 04:45:52;;;;;;;1.58;0.70;;;2.70;87.20;;;;;;2060241;28;20037;-84
2021/04/08 04:46:53;;;;;;;2.67;0.68;;;2.70;87.20;;;;;;2080975;28;20068;-84
2021/04/08 04:47:53;;;;;;;1.90;0.60;;;2.60;87.80;;;;;;2072757;28;20574;-84
2021/04/08 04:48:54;;;;;;;2.72;0.70;;;2.60;87.20;;;;;;2072644;28;20057;-84
2021/04/08 04:49:55;;;;;;;2.63;0.80;;;2.60;87.20;;;;;;2060415;28;20504;-84
2021/04/08 04:50:56;;;;;;;1.30;0.60;;;2.60;87.20;;;;;;2070955;28;20030;-84
2021/04/08 04:51:56;;;;;;;2.42;0.80;;;2.60;87.20;;;;;;2082620;28;20029;-84
2021/04/08 04:52:57;;;;;;;1.33;0.65;;;2.60;87.20;;;;;;2088329;28;20032;-83
2021/04/08 04:53:58;;;;;;;2.63;0.73;;;2.60;87.20;;;;;;2071688;28;20033;-84
2021/04/08 04:54:58;;;;;;;2.15;0.82;;;2.60;87.20;;;;;;2071379;28;20419;-84
2021/04/08 04:55:59;;;;;;;2.67;0.90;;;2.60;87.20;;;;;;2072198;28;20022;-84
2021/04/08 04:57:00;;;;;;;2.05;0.80;;;2.70;87.20;;;;;;2063223;28;20030;-83
2021/04/08 04:58:00;;;;;;;2.53;0.68;;;2.60;87.20;;;;;;2072786;28;20038;-84
2021/04/08 04:59:01;;;;;;;2.58;1.08;;;2.70;87.20;;;;;;2064590;28;20061;-84
2021/04/08 05:00:06;;;;;;;2.80;0.80;;;2.70;87.20;;;;;;2064544;28;20038;-84
2021/04/08 05:01:07;;;;;;;2.38;0.90;;;2.60;87.20;;;;;;2083847;28;20032;-83
2021/04/08 05:02:10;;;;;;;1.92;0.63;;;2.60;87.10;;;;;;2081148;28;20029;-84
2021/04/08 05:03:11;;;;;;;2.17;0.65;;;2.70;87.20;;;;;;2089836;28;20477;-83
2021/04/08 05:04:11;;;;;;;2.88;0.80;;;2.70;87.20;;;;;;2088866;28;20021;-83
2021/04/08 05:05:13;;;;;;;3.13;0.70;;;2.70;87.20;;;;;;2088277;28;20068;-83
2021/04/08 05:06:14;;;;;;;2.33;0.80;;;2.70;87.20;;;;;;2079488;28;20033;-83
2021/04/08 05:07:14;;;;;;;2.35;1.08;;;2.70;87.20;;;;;;2063574;28;20116;-83
2021/04/08 05:08:15;;;;;;;3.08;0.80;;;2.70;87.20;;;;;;2080936;28;20479;-83
2021/04/08 05:09:15;;;;;;;2.45;0.70;;;2.70;87.20;;;;;;2069508;28;20030;-83
2021/04/08 05:10:16;;;;;;;3.72;1.02;;;2.70;87.20;;;;;;2072898;28;20450;-83
2021/04/08 05:11:17;;;;;;;2.92;0.70;;;2.70;87.20;;;;;;2081450;28;20041;-83
2021/04/08 05:12:18;;;;;;;2.67;0.73;;;2.70;87.20;;;;;;2092411;28;20012;-83
2021/04/08 05:13:18;;;;;;;1.92;0.70;;;2.70;87.20;;;;;;2072564;28;20495;-83
2021/04/08 05:14:19;;;;;;;2.70;0.65;;;2.70;87.20;;;;;;2075105;28;20527;-83
2021/04/08 05:15:20;;;;;;;2.58;0.73;;;2.70;87.20;;;;;;2072074;28;20037;-83
2021/04/08 05:16:20;;;;;;;1.88;0.73;;;2.70;87.20;;;;;;2072866;28;20033;-83
2021/04/08 05:17:21;;;;;;;1.75;0.65;;;2.70;87.10;;;;;;2088414;28;20470;-84
2021/04/08 05:18:21;;;;;;;2.75;0.82;;;2.70;87.10;;;;;;2071199;28;20053;-83
2021/04/08 05:19:22;;;;;;;3.65;0.90;;;2.70;87.20;;;;;;2072734;28;20030;-84
2021/04/08 05:20:23;;;;;;;2.15;0.70;;;2.70;87.10;;;;;;2073943;28;20435;-83
2021/04/08 05:21:23;;;;;;;3.80;0.73;;;2.70;87.20;;;;;;2064808;28;20471;-85
2021/04/08 05:22:25;;;;;;;1.58;0.57;;;2.70;87.10;;;;;;2076738;28;20014;-85
2021/04/08 05:23:25;;;;;;;2.22;0.70;;;2.70;87.10;;;;;;2076363;28;20025;-85
2021/04/08 05:24:26;;;;;;;4.20;0.93;;;2.70;87.10;;;;;;2072813;28;20022;-84
2021/04/08 05:25:26;;;;;;;1.50;0.68;;;2.70;87.10;;;;;;2057116;28;20049;-85
2021/04/08 05:26:27;;;;;;;6.57;1.08;;;2.80;87.10;;;;;;2061803;28;20500;-85
2021/04/08 05:27:28;;;;;;;2.97;0.73;;;2.70;87.10;;;;;;2072501;28;20026;-84
2021/04/08 05:28:29;;;;;;;3.00;0.80;;;2.80;87.20;;;;;;2071179;28;20100;-85
2021/04/08 05:29:29;;;;;;;2.63;0.80;;;2.70;87.10;;;;;;2076972;28;20120;-84
2021/04/08 05:30:30;;;;;;;2.70;0.90;;;2.80;87.70;;;;;;2075891;28;20037;-83
2021/04/08 05:31:30;;;;;;;2.65;0.98;;;2.80;87.10;;;;;;2078589;28;20044;-84
2021/04/08 05:32:31;;;;;;;3.50;0.90;;;2.80;87.10;;;;;;2064269;28;20409;-84